sensor_id;sensor_type;location;lat;lon;timestamp;temperature;humidity
1812;DHT22;904;47.814;11.134;2023-02-02T00:01:13;6.20;56.40
1812;DHT22;904;47.814;11.134;2023-02-02T00:03:40;6.20;56.20
1812;DHT22;904;47.814;11.134;2023-02-02T00:06:09;6.20;55.90
1812;DHT22;904;47.814;11.134;2023-02-02T00:08:37;6.30;55.40
1812;DHT22;904;47.814;11.134;2023-02-02T00:11:05;6.20;54.90
1812;DHT22;904;47.814;11.134;2023-02-02T00:13:32;6.20;55.00
1812;DHT22;904;47.814;11.134;2023-02-02T00:16:26;6.20;55.10
1812;DHT22;904;47.814;11.134;2023-02-02T00:19:02;6.20;54.90
1812;DHT22;904;47.814;11.134;2023-02-02T00:21:31;6.20;55.00
1812;DHT22;904;47.814;11.134;2023-02-02T00:23:58;6.20;54.90
1812;DHT22;904;47.814;11.134;2023-02-02T00:26:26;6.20;54.90
1812;DHT22;904;47.814;11.134;2023-02-02T00:28:54;6.20;54.70
1812;DHT22;904;47.814;11.134;2023-02-02T00:31:32;6.20;54.90
1812;DHT22;904;47.814;11.134;2023-02-02T00:33:59;6.20;55.00
1812;DHT22;904;47.814;11.134;2023-02-02T00:36:29;6.20;55.00
1812;DHT22;904;47.814;11.134;2023-02-02T00:38:56;6.20;54.90
1812;DHT22;904;47.814;11.134;2023-02-02T00:41:24;6.20;55.20
1812;DHT22;904;47.814;11.134;2023-02-02T00:43:51;6.20;55.40
1812;DHT22;904;47.814;11.134;2023-02-02T00:46:33;6.20;55.30
1812;DHT22;904;47.814;11.134;2023-02-02T00:49:04;6.20;55.00
1812;DHT22;904;47.814;11.134;2023-02-02T00:51:33;6.20;55.20
1812;DHT22;904;47.814;11.134;2023-02-02T00:54:00;6.20;55.60
1812;DHT22;904;47.814;11.134;2023-02-02T00:56:27;6.20;55.90
1812;DHT22;904;47.814;11.134;2023-02-02T00:58:54;6.30;56.00
1812;DHT22;904;47.814;11.134;2023-02-02T01:01:22;6.30;56.00
1812;DHT22;904;47.814;11.134;2023-02-02T01:03:49;6.30;56.10
1812;DHT22;904;47.814;11.134;2023-02-02T01:06:17;6.30;56.20
1812;DHT22;904;47.814;11.134;2023-02-02T01:08:45;6.20;56.40
1812;DHT22;904;47.814;11.134;2023-02-02T01:11:13;6.30;56.40
1812;DHT22;904;47.814;11.134;2023-02-02T01:13:41;6.30;56.60
1812;DHT22;904;47.814;11.134;2023-02-02T01:16:09;6.30;56.70
1812;DHT22;904;47.814;11.134;2023-02-02T01:18:36;6.30;56.80
1812;DHT22;904;47.814;11.134;2023-02-02T01:21:05;6.20;56.80
1812;DHT22;904;47.814;11.134;2023-02-02T01:23:33;6.30;56.70
1812;DHT22;904;47.814;11.134;2023-02-02T01:26:04;6.20;57.10
1812;DHT22;904;47.814;11.134;2023-02-02T01:28:32;6.20;57.30
1812;DHT22;904;47.814;11.134;2023-02-02T01:31:06;6.20;57.10
1812;DHT22;904;47.814;11.134;2023-02-02T01:33:34;6.10;57.40
1812;DHT22;904;47.814;11.134;2023-02-02T01:36:06;6.20;57.60
1812;DHT22;904;47.814;11.134;2023-02-02T01:38:33;6.20;57.70
1812;DHT22;904;47.814;11.134;2023-02-02T01:41:03;6.20;57.80
1812;DHT22;904;47.814;11.134;2023-02-02T01:43:49;6.30;57.70
1812;DHT22;904;47.814;11.134;2023-02-02T01:46:18;6.20;58.40
1812;DHT22;904;47.814;11.134;2023-02-02T01:48:52;6.20;59.00
1812;DHT22;904;47.814;11.134;2023-02-02T01:51:26;6.10;59.80
1812;DHT22;904;47.814;11.134;2023-02-02T01:53:57;6.20;60.60
1812;DHT22;904;47.814;11.134;2023-02-02T01:56:30;6.20;60.50
1812;DHT22;904;47.814;11.134;2023-02-02T01:58:59;6.10;60.30
1812;DHT22;904;47.814;11.134;2023-02-02T02:01:27;6.10;59.70
1812;DHT22;904;47.814;11.134;2023-02-02T02:03:54;6.10;59.60
1812;DHT22;904;47.814;11.134;2023-02-02T02:06:22;6.10;59.50
1812;DHT22;904;47.814;11.134;2023-02-02T02:08:56;6.10;59.50
1812;DHT22;904;47.814;11.134;2023-02-02T02:11:27;6.00;60.00
1812;DHT22;904;47.814;11.134;2023-02-02T02:14:04;6.00;60.00
1812;DHT22;904;47.814;11.134;2023-02-02T02:17:00;6.00;61.10
1812;DHT22;904;47.814;11.134;2023-02-02T02:26:38;6.00;62.60
1812;DHT22;904;47.814;11.134;2023-02-02T02:32:13;5.90;63.90
1812;DHT22;904;47.814;11.134;2023-02-02T02:34:49;5.80;64.00
1812;DHT22;904;47.814;11.134;2023-02-02T02:37:26;5.80;64.80
1812;DHT22;904;47.814;11.134;2023-02-02T02:40:00;5.80;64.40
1812;DHT22;904;47.814;11.134;2023-02-02T02:42:31;5.80;64.70
1812;DHT22;904;47.814;11.134;2023-02-02T02:45:01;5.90;64.70
1812;DHT22;904;47.814;11.134;2023-02-02T02:47:30;5.80;65.50
1812;DHT22;904;47.814;11.134;2023-02-02T02:49:58;5.80;65.40
1812;DHT22;904;47.814;11.134;2023-02-02T02:52:25;5.70;65.60
1812;DHT22;904;47.814;11.134;2023-02-02T02:54:54;5.70;65.90
1812;DHT22;904;47.814;11.134;2023-02-02T02:57:33;5.80;66.30
1812;DHT22;904;47.814;11.134;2023-02-02T03:00:15;5.70;66.00
1812;DHT22;904;47.814;11.134;2023-02-02T03:02:48;5.70;66.50
1812;DHT22;904;47.814;11.134;2023-02-02T03:05:29;5.70;66.60
1812;DHT22;904;47.814;11.134;2023-02-02T03:08:05;5.70;66.30
1812;DHT22;904;47.814;11.134;2023-02-02T03:10:34;5.70;66.20
1812;DHT22;904;47.814;11.134;2023-02-02T03:13:06;5.70;66.00
1812;DHT22;904;47.814;11.134;2023-02-02T03:15:34;5.70;66.20
1812;DHT22;904;47.814;11.134;2023-02-02T03:18:03;5.70;66.30
1812;DHT22;904;47.814;11.134;2023-02-02T03:20:32;5.70;66.20
1812;DHT22;904;47.814;11.134;2023-02-02T03:23:00;5.70;66.00
1812;DHT22;904;47.814;11.134;2023-02-02T03:25:27;5.70;66.10
1812;DHT22;904;47.814;11.134;2023-02-02T03:27:54;5.70;66.10
1812;DHT22;904;47.814;11.134;2023-02-02T03:30:21;5.70;65.20
1812;DHT22;904;47.814;11.134;2023-02-02T03:32:49;5.70;65.40
1812;DHT22;904;47.814;11.134;2023-02-02T03:35:19;5.80;65.30
1812;DHT22;904;47.814;11.134;2023-02-02T03:37:46;5.70;64.70
1812;DHT22;904;47.814;11.134;2023-02-02T03:40:18;5.80;64.70
1812;DHT22;904;47.814;11.134;2023-02-02T03:42:48;5.80;64.30
1812;DHT22;904;47.814;11.134;2023-02-02T03:45:15;5.80;64.60
1812;DHT22;904;47.814;11.134;2023-02-02T03:47:42;5.80;64.40
1812;DHT22;904;47.814;11.134;2023-02-02T03:50:10;5.80;64.40
1812;DHT22;904;47.814;11.134;2023-02-02T03:52:40;5.80;64.30
1812;DHT22;904;47.814;11.134;2023-02-02T03:55:07;5.80;64.20
1812;DHT22;904;47.814;11.134;2023-02-02T03:57:35;5.80;64.10
1812;DHT22;904;47.814;11.134;2023-02-02T04:00:03;5.80;64.30
1812;DHT22;904;47.814;11.134;2023-02-02T04:02:32;5.80;64.30
1812;DHT22;904;47.814;11.134;2023-02-02T04:05:01;5.80;64.90
1812;DHT22;904;47.814;11.134;2023-02-02T04:07:28;5.80;64.80
1812;DHT22;904;47.814;11.134;2023-02-02T04:09:57;5.80;64.90
1812;DHT22;904;47.814;11.134;2023-02-02T04:12:24;5.80;65.20
1812;DHT22;904;47.814;11.134;2023-02-02T04:14:51;5.70;65.20
1812;DHT22;904;47.814;11.134;2023-02-02T04:17:18;5.70;65.20
1812;DHT22;904;47.814;11.134;2023-02-02T04:19:45;5.70;65.50
1812;DHT22;904;47.814;11.134;2023-02-02T04:22:13;5.70;65.50
1812;DHT22;904;47.814;11.134;2023-02-02T04:24:40;5.70;65.70
1812;DHT22;904;47.814;11.134;2023-02-02T04:27:09;5.80;66.40
1812;DHT22;904;47.814;11.134;2023-02-02T04:29:39;5.80;65.20
1812;DHT22;904;47.814;11.134;2023-02-02T04:32:06;5.80;65.20
1812;DHT22;904;47.814;11.134;2023-02-02T04:34:33;5.80;65.30
1812;DHT22;904;47.814;11.134;2023-02-02T04:37:00;5.80;65.70
1812;DHT22;904;47.814;11.134;2023-02-02T04:39:27;5.80;65.90
1812;DHT22;904;47.814;11.134;2023-02-02T04:41:55;5.80;65.90
1812;DHT22;904;47.814;11.134;2023-02-02T04:44:24;5.80;65.90
1812;DHT22;904;47.814;11.134;2023-02-02T04:46:52;5.70;66.40
1812;DHT22;904;47.814;11.134;2023-02-02T04:49:19;5.80;67.00
1812;DHT22;904;47.814;11.134;2023-02-02T04:51:49;5.70;66.30
1812;DHT22;904;47.814;11.134;2023-02-02T04:54:18;5.70;66.30
1812;DHT22;904;47.814;11.134;2023-02-02T04:56:47;5.80;66.30
1812;DHT22;904;47.814;11.134;2023-02-02T04:59:14;5.70;66.40
1812;DHT22;904;47.814;11.134;2023-02-02T05:01:43;5.70;66.30
1812;DHT22;904;47.814;11.134;2023-02-02T05:04:10;5.70;66.30
1812;DHT22;904;47.814;11.134;2023-02-02T05:06:37;5.80;66.40
1812;DHT22;904;47.814;11.134;2023-02-02T05:09:05;5.90;66.20
1812;DHT22;904;47.814;11.134;2023-02-02T05:11:32;5.90;65.80
1812;DHT22;904;47.814;11.134;2023-02-02T05:14:01;5.90;65.90
1812;DHT22;904;47.814;11.134;2023-02-02T05:16:28;5.80;65.70
1812;DHT22;904;47.814;11.134;2023-02-02T05:18:57;5.80;66.00
1812;DHT22;904;47.814;11.134;2023-02-02T05:21:24;5.80;66.20
1812;DHT22;904;47.814;11.134;2023-02-02T05:23:51;5.80;66.10
1812;DHT22;904;47.814;11.134;2023-02-02T05:26:21;5.90;65.80
1812;DHT22;904;47.814;11.134;2023-02-02T05:28:48;5.90;65.80
1812;DHT22;904;47.814;11.134;2023-02-02T05:31:17;5.90;65.70
1812;DHT22;904;47.814;11.134;2023-02-02T05:33:44;5.90;65.70
1812;DHT22;904;47.814;11.134;2023-02-02T05:36:13;5.90;65.50
1812;DHT22;904;47.814;11.134;2023-02-02T05:38:43;6.00;65.20
1812;DHT22;904;47.814;11.134;2023-02-02T05:41:15;5.90;65.20
1812;DHT22;904;47.814;11.134;2023-02-02T05:43:42;5.90;65.50
1812;DHT22;904;47.814;11.134;2023-02-02T05:46:12;5.90;65.60
1812;DHT22;904;47.814;11.134;2023-02-02T05:48:42;5.90;65.50
1812;DHT22;904;47.814;11.134;2023-02-02T05:51:13;6.00;65.70
1812;DHT22;904;47.814;11.134;2023-02-02T05:53:42;5.90;65.60
1812;DHT22;904;47.814;11.134;2023-02-02T05:56:11;5.90;65.50
1812;DHT22;904;47.814;11.134;2023-02-02T05:58:43;5.90;65.80
1812;DHT22;904;47.814;11.134;2023-02-02T06:01:12;5.80;66.00
1812;DHT22;904;47.814;11.134;2023-02-02T06:03:40;5.90;65.90
1812;DHT22;904;47.814;11.134;2023-02-02T06:06:08;5.90;65.60
1812;DHT22;904;47.814;11.134;2023-02-02T06:08:36;5.90;65.60
1812;DHT22;904;47.814;11.134;2023-02-02T06:11:08;5.90;65.80
1812;DHT22;904;47.814;11.134;2023-02-02T06:13:36;5.90;65.70
1812;DHT22;904;47.814;11.134;2023-02-02T06:16:03;5.90;65.60
1812;DHT22;904;47.814;11.134;2023-02-02T06:18:31;6.00;65.80
1812;DHT22;904;47.814;11.134;2023-02-02T06:20:59;5.90;65.80
1812;DHT22;904;47.814;11.134;2023-02-02T06:23:26;5.90;65.80
1812;DHT22;904;47.814;11.134;2023-02-02T06:25:55;6.00;66.10
1812;DHT22;904;47.814;11.134;2023-02-02T06:28:22;5.90;66.00
1812;DHT22;904;47.814;11.134;2023-02-02T06:30:49;5.90;66.00
1812;DHT22;904;47.814;11.134;2023-02-02T06:33:17;5.80;66.50
1812;DHT22;904;47.814;11.134;2023-02-02T06:35:44;5.80;66.60
1812;DHT22;904;47.814;11.134;2023-02-02T06:38:12;5.90;66.80
1812;DHT22;904;47.814;11.134;2023-02-02T06:40:39;5.90;66.90
1812;DHT22;904;47.814;11.134;2023-02-02T06:43:08;5.80;66.80
1812;DHT22;904;47.814;11.134;2023-02-02T06:45:36;5.90;66.70
1812;DHT22;904;47.814;11.134;2023-02-02T06:48:05;6.00;66.30
1812;DHT22;904;47.814;11.134;2023-02-02T06:50:35;6.00;66.10
1812;DHT22;904;47.814;11.134;2023-02-02T06:53:03;6.00;66.00
1812;DHT22;904;47.814;11.134;2023-02-02T06:55:30;6.00;66.50
1812;DHT22;904;47.814;11.134;2023-02-02T06:57:58;6.00;66.40
1812;DHT22;904;47.814;11.134;2023-02-02T07:00:28;6.00;66.60
1812;DHT22;904;47.814;11.134;2023-02-02T07:02:55;6.00;66.70
1812;DHT22;904;47.814;11.134;2023-02-02T07:05:23;6.00;66.90
1812;DHT22;904;47.814;11.134;2023-02-02T07:07:52;6.00;66.80
1812;DHT22;904;47.814;11.134;2023-02-02T07:10:21;6.10;66.70
1812;DHT22;904;47.814;11.134;2023-02-02T07:12:48;6.00;66.40
1812;DHT22;904;47.814;11.134;2023-02-02T07:15:20;6.00;66.90
1812;DHT22;904;47.814;11.134;2023-02-02T07:17:49;6.00;66.90
1812;DHT22;904;47.814;11.134;2023-02-02T07:20:17;6.10;66.90
1812;DHT22;904;47.814;11.134;2023-02-02T07:22:44;6.10;66.90
1812;DHT22;904;47.814;11.134;2023-02-02T07:25:11;6.20;66.60
1812;DHT22;904;47.814;11.134;2023-02-02T07:27:39;6.10;66.90
1812;DHT22;904;47.814;11.134;2023-02-02T07:30:07;6.10;67.10
1812;DHT22;904;47.814;11.134;2023-02-02T07:32:34;6.10;67.40
1812;DHT22;904;47.814;11.134;2023-02-02T07:35:04;6.10;67.30
1812;DHT22;904;47.814;11.134;2023-02-02T07:37:31;6.20;67.50
1812;DHT22;904;47.814;11.134;2023-02-02T07:39:58;6.20;67.30
1812;DHT22;904;47.814;11.134;2023-02-02T07:42:25;6.10;67.50
1812;DHT22;904;47.814;11.134;2023-02-02T07:44:53;6.20;67.70
1812;DHT22;904;47.814;11.134;2023-02-02T07:47:20;6.30;67.50
1812;DHT22;904;47.814;11.134;2023-02-02T07:49:47;6.30;67.50
1812;DHT22;904;47.814;11.134;2023-02-02T07:52:15;6.30;67.80
1812;DHT22;904;47.814;11.134;2023-02-02T07:54:42;6.30;67.40
1812;DHT22;904;47.814;11.134;2023-02-02T07:57:09;6.40;67.30
1812;DHT22;904;47.814;11.134;2023-02-02T07:59:38;6.40;67.10
1812;DHT22;904;47.814;11.134;2023-02-02T08:02:05;6.40;66.90
1812;DHT22;904;47.814;11.134;2023-02-02T08:04:32;6.50;67.40
1812;DHT22;904;47.814;11.134;2023-02-02T08:06:59;6.50;66.90
1812;DHT22;904;47.814;11.134;2023-02-02T08:09:27;6.50;66.50
1812;DHT22;904;47.814;11.134;2023-02-02T08:11:54;6.50;66.90
1812;DHT22;904;47.814;11.134;2023-02-02T08:14:26;6.50;67.30
1812;DHT22;904;47.814;11.134;2023-02-02T08:16:53;6.50;67.20
1812;DHT22;904;47.814;11.134;2023-02-02T08:19:20;6.50;67.40
1812;DHT22;904;47.814;11.134;2023-02-02T08:21:47;6.50;68.10
1812;DHT22;904;47.814;11.134;2023-02-02T08:24:14;6.50;68.60
1812;DHT22;904;47.814;11.134;2023-02-02T08:26:42;6.50;68.60
1812;DHT22;904;47.814;11.134;2023-02-02T08:29:11;6.50;68.70
1812;DHT22;904;47.814;11.134;2023-02-02T08:31:42;6.50;68.70
1812;DHT22;904;47.814;11.134;2023-02-02T08:34:10;6.40;69.10
1812;DHT22;904;47.814;11.134;2023-02-02T08:36:38;6.40;69.50
1812;DHT22;904;47.814;11.134;2023-02-02T08:39:08;6.40;70.40
1812;DHT22;904;47.814;11.134;2023-02-02T08:41:36;6.40;70.70
1812;DHT22;904;47.814;11.134;2023-02-02T08:44:06;6.40;70.40
1812;DHT22;904;47.814;11.134;2023-02-02T08:46:34;6.40;71.30
1812;DHT22;904;47.814;11.134;2023-02-02T08:49:01;6.40;71.30
1812;DHT22;904;47.814;11.134;2023-02-02T08:51:28;6.40;71.70
1812;DHT22;904;47.814;11.134;2023-02-02T08:53:55;6.40;71.90
1812;DHT22;904;47.814;11.134;2023-02-02T08:56:22;6.40;72.40
1812;DHT22;904;47.814;11.134;2023-02-02T08:58:51;6.40;72.40
1812;DHT22;904;47.814;11.134;2023-02-02T09:01:21;6.40;73.20
1812;DHT22;904;47.814;11.134;2023-02-02T09:03:52;6.40;72.70
1812;DHT22;904;47.814;11.134;2023-02-02T09:06:20;6.50;72.40
1812;DHT22;904;47.814;11.134;2023-02-02T09:08:47;6.40;72.20
1812;DHT22;904;47.814;11.134;2023-02-02T09:11:16;6.40;72.00
1812;DHT22;904;47.814;11.134;2023-02-02T09:13:46;6.40;72.60
1812;DHT22;904;47.814;11.134;2023-02-02T09:16:15;6.40;72.90
1812;DHT22;904;47.814;11.134;2023-02-02T09:18:44;6.40;72.70
1812;DHT22;904;47.814;11.134;2023-02-02T09:21:14;6.50;72.40
1812;DHT22;904;47.814;11.134;2023-02-02T09:23:43;6.50;72.00
1812;DHT22;904;47.814;11.134;2023-02-02T09:26:13;6.50;71.40
1812;DHT22;904;47.814;11.134;2023-02-02T09:28:46;6.60;71.60
1812;DHT22;904;47.814;11.134;2023-02-02T09:31:14;6.60;71.50
1812;DHT22;904;47.814;11.134;2023-02-02T09:33:42;6.60;71.50
1812;DHT22;904;47.814;11.134;2023-02-02T09:36:13;6.60;72.00
1812;DHT22;904;47.814;11.134;2023-02-02T09:38:40;6.70;71.10
1812;DHT22;904;47.814;11.134;2023-02-02T09:41:29;6.70;71.50
1812;DHT22;904;47.814;11.134;2023-02-02T09:44:06;6.70;71.60
1812;DHT22;904;47.814;11.134;2023-02-02T09:46:46;6.80;71.50
1812;DHT22;904;47.814;11.134;2023-02-02T09:49:18;6.80;71.10
1812;DHT22;904;47.814;11.134;2023-02-02T09:51:53;6.80;71.00
1812;DHT22;904;47.814;11.134;2023-02-02T09:54:27;6.80;70.70
1812;DHT22;904;47.814;11.134;2023-02-02T09:56:57;6.80;70.30
1812;DHT22;904;47.814;11.134;2023-02-02T09:59:29;6.80;70.20
1812;DHT22;904;47.814;11.134;2023-02-02T10:02:04;6.80;70.20
1812;DHT22;904;47.814;11.134;2023-02-02T10:04:35;6.80;70.40
1812;DHT22;904;47.814;11.134;2023-02-02T10:07:08;6.80;69.80
1812;DHT22;904;47.814;11.134;2023-02-02T10:09:39;6.80;69.90
1812;DHT22;904;47.814;11.134;2023-02-02T10:12:27;6.70;70.30
1812;DHT22;904;47.814;11.134;2023-02-02T10:14:59;6.70;70.30
1812;DHT22;904;47.814;11.134;2023-02-02T10:17:39;6.70;70.80
1812;DHT22;904;47.814;11.134;2023-02-02T10:20:21;6.70;70.60
1812;DHT22;904;47.814;11.134;2023-02-02T10:22:54;6.70;70.60
1812;DHT22;904;47.814;11.134;2023-02-02T10:25:25;6.70;70.30
1812;DHT22;904;47.814;11.134;2023-02-02T10:27:59;6.80;69.70
1812;DHT22;904;47.814;11.134;2023-02-02T10:30:38;6.70;69.70
1812;DHT22;904;47.814;11.134;2023-02-02T10:33:14;6.70;69.80
1812;DHT22;904;47.814;11.134;2023-02-02T10:35:51;6.80;69.00
1812;DHT22;904;47.814;11.134;2023-02-02T10:38:23;6.70;69.30
1812;DHT22;904;47.814;11.134;2023-02-02T10:41:01;6.70;69.30
1812;DHT22;904;47.814;11.134;2023-02-02T10:43:52;6.70;69.00
1812;DHT22;904;47.814;11.134;2023-02-02T10:46:29;6.70;69.70
1812;DHT22;904;47.814;11.134;2023-02-02T10:49:10;6.70;68.90
1812;DHT22;904;47.814;11.134;2023-02-02T10:51:39;6.80;69.30
1812;DHT22;904;47.814;11.134;2023-02-02T10:56:59;6.80;70.10
1812;DHT22;904;47.814;11.134;2023-02-02T10:59:31;6.80;69.80
1812;DHT22;904;47.814;11.134;2023-02-02T11:01:59;6.80;68.90
1812;DHT22;904;47.814;11.134;2023-02-02T11:04:26;6.90;69.20
1812;DHT22;904;47.814;11.134;2023-02-02T11:07:11;6.90;69.60
1812;DHT22;904;47.814;11.134;2023-02-02T11:09:46;6.90;69.60
1812;DHT22;904;47.814;11.134;2023-02-02T11:12:19;6.80;69.40
1812;DHT22;904;47.814;11.134;2023-02-02T11:14:52;6.90;69.00
1812;DHT22;904;47.814;11.134;2023-02-02T11:17:24;6.90;69.30
1812;DHT22;904;47.814;11.134;2023-02-02T11:19:51;6.80;69.70
1812;DHT22;904;47.814;11.134;2023-02-02T11:22:29;6.80;70.20
1812;DHT22;904;47.814;11.134;2023-02-02T11:25:02;6.80;70.50
1812;DHT22;904;47.814;11.134;2023-02-02T11:27:32;6.80;71.20
1812;DHT22;904;47.814;11.134;2023-02-02T11:30:10;6.70;71.30
1812;DHT22;904;47.814;11.134;2023-02-02T11:32:37;6.80;71.30
1812;DHT22;904;47.814;11.134;2023-02-02T11:35:19;6.70;71.80
1812;DHT22;904;47.814;11.134;2023-02-02T11:37:57;6.70;72.20
1812;DHT22;904;47.814;11.134;2023-02-02T11:40:35;6.80;72.10
1812;DHT22;904;47.814;11.134;2023-02-02T11:43:05;6.80;73.10
1812;DHT22;904;47.814;11.134;2023-02-02T11:45:41;6.80;72.60
1812;DHT22;904;47.814;11.134;2023-02-02T11:48:15;6.80;72.30
1812;DHT22;904;47.814;11.134;2023-02-02T11:50:45;6.80;72.50
1812;DHT22;904;47.814;11.134;2023-02-02T11:53:22;6.80;73.20
1812;DHT22;904;47.814;11.134;2023-02-02T11:55:52;6.80;73.10
1812;DHT22;904;47.814;11.134;2023-02-02T11:58:21;6.80;73.30
1812;DHT22;904;47.814;11.134;2023-02-02T12:00:54;6.80;73.70
1812;DHT22;904;47.814;11.134;2023-02-02T12:03:33;6.80;73.80
1812;DHT22;904;47.814;11.134;2023-02-02T12:06:17;6.80;73.90
1812;DHT22;904;47.814;11.134;2023-02-02T12:08:49;6.80;74.50
1812;DHT22;904;47.814;11.134;2023-02-02T12:11:31;6.80;74.60
1812;DHT22;904;47.814;11.134;2023-02-02T12:14:10;6.80;74.50
1812;DHT22;904;47.814;11.134;2023-02-02T12:16:52;6.80;74.40
1812;DHT22;904;47.814;11.134;2023-02-02T12:20:00;6.80;75.00
1812;DHT22;904;47.814;11.134;2023-02-02T12:22:46;6.80;74.70
1812;DHT22;904;47.814;11.134;2023-02-02T12:25:34;6.90;74.20
1812;DHT22;904;47.814;11.134;2023-02-02T12:28:14;6.90;74.80
1812;DHT22;904;47.814;11.134;2023-02-02T12:30:49;6.90;74.50
1812;DHT22;904;47.814;11.134;2023-02-02T12:33:24;6.90;74.10
1812;DHT22;904;47.814;11.134;2023-02-02T12:36:13;6.80;74.40
1812;DHT22;904;47.814;11.134;2023-02-02T12:38:58;6.90;74.40
1812;DHT22;904;47.814;11.134;2023-02-02T12:41:37;6.90;74.10
1812;DHT22;904;47.814;11.134;2023-02-02T12:44:12;6.90;74.00
1812;DHT22;904;47.814;11.134;2023-02-02T12:47:07;6.90;73.90
1812;DHT22;904;47.814;11.134;2023-02-02T12:49:53;6.90;74.50
1812;DHT22;904;47.814;11.134;2023-02-02T12:52:38;7.00;73.90
1812;DHT22;904;47.814;11.134;2023-02-02T12:55:22;7.00;74.00
1812;DHT22;904;47.814;11.134;2023-02-02T12:58:00;6.90;74.00
1812;DHT22;904;47.814;11.134;2023-02-02T13:00:52;7.00;74.10
1812;DHT22;904;47.814;11.134;2023-02-02T13:03:29;7.00;74.20
1812;DHT22;904;47.814;11.134;2023-02-02T13:06:22;6.90;74.40
1812;DHT22;904;47.814;11.134;2023-02-02T13:08:57;6.90;74.80
1812;DHT22;904;47.814;11.134;2023-02-02T13:11:34;7.00;74.10
1812;DHT22;904;47.814;11.134;2023-02-02T13:14:07;6.90;74.00
1812;DHT22;904;47.814;11.134;2023-02-02T13:16:40;6.90;74.50
1812;DHT22;904;47.814;11.134;2023-02-02T13:19:12;6.80;74.40
1812;DHT22;904;47.814;11.134;2023-02-02T13:21:42;6.80;74.90
1812;DHT22;904;47.814;11.134;2023-02-02T13:24:14;6.70;75.30
1812;DHT22;904;47.814;11.134;2023-02-02T13:26:44;6.70;75.90
1812;DHT22;904;47.814;11.134;2023-02-02T13:29:18;6.70;76.20
1812;DHT22;904;47.814;11.134;2023-02-02T13:31:58;6.80;75.80
1812;DHT22;904;47.814;11.134;2023-02-02T13:34:37;6.80;76.20
1812;DHT22;904;47.814;11.134;2023-02-02T13:37:12;6.90;75.30
1812;DHT22;904;47.814;11.134;2023-02-02T13:39:44;6.90;75.60
1812;DHT22;904;47.814;11.134;2023-02-02T13:42:20;6.90;75.40
1812;DHT22;904;47.814;11.134;2023-02-02T13:44:54;6.80;75.40
1812;DHT22;904;47.814;11.134;2023-02-02T13:47:29;6.80;76.10
1812;DHT22;904;47.814;11.134;2023-02-02T13:50:04;6.70;76.10
1812;DHT22;904;47.814;11.134;2023-02-02T13:53:03;6.70;76.90
1812;DHT22;904;47.814;11.134;2023-02-02T13:55:42;6.70;76.50
1812;DHT22;904;47.814;11.134;2023-02-02T13:58:33;6.70;76.30
1812;DHT22;904;47.814;11.134;2023-02-02T14:01:05;6.70;76.40
1812;DHT22;904;47.814;11.134;2023-02-02T14:03:36;6.60;76.70
1812;DHT22;904;47.814;11.134;2023-02-02T14:06:14;6.60;77.00
1812;DHT22;904;47.814;11.134;2023-02-02T14:08:45;6.60;77.30
1812;DHT22;904;47.814;11.134;2023-02-02T14:11:19;6.60;78.00
1812;DHT22;904;47.814;11.134;2023-02-02T14:13:49;6.60;77.70
1812;DHT22;904;47.814;11.134;2023-02-02T14:16:49;6.50;78.40
1812;DHT22;904;47.814;11.134;2023-02-02T14:19:48;6.50;78.70
1812;DHT22;904;47.814;11.134;2023-02-02T14:22:40;6.50;78.70
1812;DHT22;904;47.814;11.134;2023-02-02T14:28:36;6.50;78.40
1812;DHT22;904;47.814;11.134;2023-02-02T14:31:26;6.50;79.30
1812;DHT22;904;47.814;11.134;2023-02-02T14:34:25;6.50;79.00
1812;DHT22;904;47.814;11.134;2023-02-02T14:37:04;6.50;79.30
1812;DHT22;904;47.814;11.134;2023-02-02T14:39:39;6.40;79.70
1812;DHT22;904;47.814;11.134;2023-02-02T14:42:24;6.50;79.60
1812;DHT22;904;47.814;11.134;2023-02-02T14:45:27;6.50;79.10
1812;DHT22;904;47.814;11.134;2023-02-02T14:47:56;6.40;78.80
1812;DHT22;904;47.814;11.134;2023-02-02T14:50:40;6.40;79.30
1812;DHT22;904;47.814;11.134;2023-02-02T14:53:16;6.40;80.20
1812;DHT22;904;47.814;11.134;2023-02-02T14:55:58;6.40;79.70
1812;DHT22;904;47.814;11.134;2023-02-02T14:58:29;6.40;80.10
1812;DHT22;904;47.814;11.134;2023-02-02T15:01:04;6.40;79.40
1812;DHT22;904;47.814;11.134;2023-02-02T15:03:36;6.40;79.40
1812;DHT22;904;47.814;11.134;2023-02-02T15:06:23;6.40;79.20
1812;DHT22;904;47.814;11.134;2023-02-02T15:09:26;6.30;79.40
1812;DHT22;904;47.814;11.134;2023-02-02T15:12:27;6.30;79.70
1812;DHT22;904;47.814;11.134;2023-02-02T15:15:15;6.30;80.20
1812;DHT22;904;47.814;11.134;2023-02-02T15:17:53;6.20;81.00
1812;DHT22;904;47.814;11.134;2023-02-02T15:20:28;6.20;80.60
1812;DHT22;904;47.814;11.134;2023-02-02T15:22:59;6.30;80.30
1812;DHT22;904;47.814;11.134;2023-02-02T15:25:31;6.20;80.70
1812;DHT22;904;47.814;11.134;2023-02-02T15:28:06;6.10;80.90
1812;DHT22;904;47.814;11.134;2023-02-02T15:30:47;6.10;81.20
1812;DHT22;904;47.814;11.134;2023-02-02T15:33:24;6.10;81.20
1812;DHT22;904;47.814;11.134;2023-02-02T15:35:56;6.10;81.20
1812;DHT22;904;47.814;11.134;2023-02-02T15:38:31;6.20;80.90
1812;DHT22;904;47.814;11.134;2023-02-02T15:41:03;6.20;81.00
1812;DHT22;904;47.814;11.134;2023-02-02T15:43:31;6.10;81.20
1812;DHT22;904;47.814;11.134;2023-02-02T15:46:02;6.10;80.90
1812;DHT22;904;47.814;11.134;2023-02-02T15:48:35;6.10;81.30
1812;DHT22;904;47.814;11.134;2023-02-02T15:51:05;6.10;81.30
1812;DHT22;904;47.814;11.134;2023-02-02T15:53:46;6.10;81.10
1812;DHT22;904;47.814;11.134;2023-02-02T15:56:19;6.10;81.50
1812;DHT22;904;47.814;11.134;2023-02-02T15:58:48;6.10;81.50
1812;DHT22;904;47.814;11.134;2023-02-02T16:01:17;6.00;81.20
1812;DHT22;904;47.814;11.134;2023-02-02T16:03:49;6.00;81.50
1812;DHT22;904;47.814;11.134;2023-02-02T16:06:18;6.00;81.60
1812;DHT22;904;47.814;11.134;2023-02-02T16:08:46;6.00;81.20
1812;DHT22;904;47.814;11.134;2023-02-02T16:11:15;6.00;81.50
1812;DHT22;904;47.814;11.134;2023-02-02T16:13:50;6.00;81.30
1812;DHT22;904;47.814;11.134;2023-02-02T16:16:21;6.00;81.50
1812;DHT22;904;47.814;11.134;2023-02-02T16:19:01;6.00;81.80
1812;DHT22;904;47.814;11.134;2023-02-02T16:21:30;6.00;81.50
1812;DHT22;904;47.814;11.134;2023-02-02T16:23:58;6.00;81.40
1812;DHT22;904;47.814;11.134;2023-02-02T16:26:28;6.00;82.50
1812;DHT22;904;47.814;11.134;2023-02-02T16:28:56;6.00;81.50
1812;DHT22;904;47.814;11.134;2023-02-02T16:31:23;6.10;81.60
1812;DHT22;904;47.814;11.134;2023-02-02T16:33:51;6.10;81.30
1812;DHT22;904;47.814;11.134;2023-02-02T16:36:20;6.00;81.30
1812;DHT22;904;47.814;11.134;2023-02-02T16:38:49;6.10;81.10
1812;DHT22;904;47.814;11.134;2023-02-02T16:41:30;6.00;81.20
1812;DHT22;904;47.814;11.134;2023-02-02T16:47:05;6.00;81.60
1812;DHT22;904;47.814;11.134;2023-02-02T16:49:33;6.00;81.70
1812;DHT22;904;47.814;11.134;2023-02-02T16:52:10;6.10;81.50
1812;DHT22;904;47.814;11.134;2023-02-02T16:54:41;6.10;81.20
1812;DHT22;904;47.814;11.134;2023-02-02T16:57:18;6.10;81.60
1812;DHT22;904;47.814;11.134;2023-02-02T16:59:48;6.10;82.00
1812;DHT22;904;47.814;11.134;2023-02-02T17:02:23;6.10;81.70
1812;DHT22;904;47.814;11.134;2023-02-02T17:04:57;6.10;81.40
1812;DHT22;904;47.814;11.134;2023-02-02T17:07:26;6.00;81.70
1812;DHT22;904;47.814;11.134;2023-02-02T17:12:58;6.10;81.60